createdAt,value
2019-02-21T00:01:13.349Z,70.97
2019-02-21T00:03:44.003Z,70.80
2019-02-21T00:06:15.618Z,70.96
2019-02-21T00:08:46.286Z,70.87
2019-02-21T00:11:17.061Z,70.87
2019-02-21T00:13:50.367Z,70.94
2019-02-21T00:16:21.038Z,70.97
2019-02-21T00:18:51.766Z,71.01
2019-02-21T00:21:22.347Z,71.17
2019-02-21T00:23:52.867Z,71.35
2019-02-21T00:26:23.418Z,71.50
2019-02-21T00:28:53.939Z,71.48
2019-02-21T00:31:24.676Z,71.39
2019-02-21T00:33:58.278Z,71.27
2019-02-21T00:36:32.498Z,71.04
2019-02-21T00:39:06.808Z,70.92
2019-02-21T00:41:37.867Z,70.97
2019-02-21T00:44:09.790Z,70.76
2019-02-21T00:46:45.253Z,70.75
2019-02-21T00:49:21.928Z,70.88
2019-02-21T00:51:54.237Z,70.91
2019-02-21T00:54:23.976Z,70.90
2019-02-21T00:56:54.478Z,71.01
2019-02-21T00:59:40.220Z,71.01
2019-02-21T01:02:38.496Z,71.01
2019-02-21T01:05:18.288Z,71.10
2019-02-21T01:07:51.416Z,71.03
2019-02-21T01:10:23.287Z,71.01
2019-02-21T01:12:53.991Z,71.08
2019-02-21T01:15:24.612Z,71.20
2019-02-21T01:18:04.353Z,71.23
2019-02-21T01:20:46.976Z,71.28
2019-02-21T01:23:23.297Z,71.18
2019-02-21T01:25:57.176Z,71.20
2019-02-21T01:28:27.789Z,71.20
2019-02-21T01:30:58.497Z,71.28
2019-02-21T01:33:32.278Z,71.36
2019-02-21T01:36:04.168Z,71.42
2019-02-21T01:38:35.267Z,71.56
2019-02-21T01:41:06.779Z,71.63
2019-02-21T01:43:38.728Z,71.68
2019-02-21T01:46:09.858Z,71.66
2019-02-21T01:48:40.738Z,71.68
2019-02-21T01:51:12.668Z,71.80
2019-02-21T01:53:43.549Z,72.03
2019-02-21T01:56:17.262Z,72.05
2019-02-21T01:58:48.007Z,72.17
2019-02-21T02:01:18.642Z,72.24
2019-02-21T02:03:49.235Z,72.32
2019-02-21T02:06:19.800Z,72.55
2019-02-21T02:08:50.430Z,72.49
2019-02-21T02:11:21.018Z,72.59
2019-02-21T02:13:51.689Z,72.68
2019-02-21T02:16:22.258Z,72.62
2019-02-21T02:18:54.108Z,72.90
2019-02-21T02:21:24.738Z,72.99
2019-02-21T02:23:56.928Z,73.19
2019-02-21T02:26:27.521Z,73.26
2019-02-21T02:28:58.792Z,73.66
2019-02-21T02:31:30.362Z,73.60
2019-02-21T02:34:04.016Z,73.66
2019-02-21T02:36:35.422Z,73.89
2019-02-21T02:39:06.307Z,74.26
2019-02-21T02:41:37.879Z,73.83
2019-02-21T02:44:08.546Z,73.66
2019-02-21T02:46:39.122Z,73.64
2019-02-21T02:49:11.407Z,73.90
2019-02-21T02:51:41.086Z,73.62
2019-02-21T02:54:12.008Z,74.93
2019-02-21T02:56:42.691Z,73.93
2019-02-21T02:59:17.299Z,73.68
2019-02-21T03:01:47.890Z,73.78
2019-02-21T03:04:18.468Z,73.79
2019-02-21T03:06:48.997Z,74.19
2019-02-21T03:09:19.757Z,74.04
2019-02-21T03:11:52.003Z,74.28
2019-02-21T03:14:21.657Z,74.28
2019-02-21T03:16:52.040Z,75.35
2019-02-21T03:19:22.657Z,74.19
2019-02-21T03:21:53.431Z,74.25
2019-02-21T03:24:24.166Z,74.18
2019-02-21T03:26:54.738Z,74.43
2019-02-21T03:29:25.379Z,74.36
2019-02-21T03:31:56.475Z,74.26
2019-02-21T03:34:35.243Z,74.37
2019-02-21T03:37:06.099Z,74.11
2019-02-21T03:39:37.380Z,74.17
2019-02-21T03:42:08.011Z,74.33
2019-02-21T03:44:40.178Z,74.55
2019-02-21T03:47:10.698Z,74.73
2019-02-21T03:49:41.275Z,74.56
2019-02-21T03:52:11.827Z,74.51
2019-02-21T03:54:42.457Z,74.31
2019-02-21T03:57:12.998Z,74.22
2019-02-21T03:59:43.482Z,74.29
2019-02-21T04:02:14.163Z,74.22
2019-02-21T04:04:44.797Z,74.41
2019-02-21T04:07:15.544Z,74.35
2019-02-21T04:09:46.136Z,74.35
2019-02-21T04:12:16.769Z,74.30
2019-02-21T04:14:47.347Z,74.33
2019-02-21T04:17:17.862Z,74.40
2019-02-21T04:19:51.338Z,74.60
2019-02-21T04:22:21.930Z,74.45
2019-02-21T04:24:52.438Z,74.54
2019-02-21T04:27:23.081Z,74.49
2019-02-21T04:29:53.627Z,74.70
2019-02-21T04:32:25.478Z,74.63
2019-02-21T04:34:56.029Z,74.56
2019-02-21T04:37:26.598Z,74.67
2019-02-21T04:39:57.130Z,74.80
2019-02-21T04:42:27.665Z,74.63
2019-02-21T04:44:58.195Z,74.71
2019-02-21T04:47:28.721Z,74.64
2019-02-21T04:49:59.280Z,74.68
2019-02-21T04:52:30.068Z,75.02
2019-02-21T04:55:00.558Z,75.08
2019-02-21T04:57:31.128Z,74.99
2019-02-21T05:00:02.329Z,75.46
2019-02-21T05:02:33.138Z,74.75
2019-02-21T05:05:03.782Z,74.99
2019-02-21T05:07:34.392Z,74.91
2019-02-21T05:10:05.207Z,75.10
2019-02-21T05:12:38.719Z,74.92
2019-02-21T05:15:09.547Z,75.85
2019-02-21T05:17:40.246Z,75.68
2019-02-21T05:20:10.916Z,75.13
2019-02-21T05:22:41.918Z,74.81
2019-02-21T05:25:17.094Z,75.75
2019-02-21T05:27:53.033Z,74.81
2019-02-21T05:30:25.454Z,75.28
2019-02-21T05:33:10.584Z,75.97
2019-02-21T05:35:59.626Z,75.25
2019-02-21T05:38:52.088Z,75.38
2019-02-21T05:41:37.327Z,76.05
2019-02-21T05:44:26.690Z,75.66
2019-02-21T05:47:08.231Z,75.70
2019-02-21T05:49:57.153Z,76.66
2019-02-21T05:52:33.078Z,76.58
2019-02-21T05:55:31.559Z,77.20
2019-02-21T05:58:15.883Z,77.06
2019-02-21T06:01:04.676Z,76.98
2019-02-21T06:03:45.527Z,77.19
2019-02-21T06:06:39.628Z,77.23
2019-02-21T06:09:24.980Z,77.65
2019-02-21T06:13:01.223Z,78.19
2019-02-21T06:16:18.109Z,78.31
2019-02-21T06:19:50.797Z,79.38
2019-02-21T06:26:16.270Z,79.16
2019-02-21T06:29:16.048Z,78.97
2019-02-21T06:31:56.392Z,79.12
2019-02-21T06:34:31.680Z,79.00
2019-02-21T06:37:28.660Z,79.34
2019-02-21T06:40:49.268Z,79.34
2019-02-21T06:43:19.457Z,80.23
2019-02-21T06:45:51.287Z,80.38
2019-02-21T06:48:22.248Z,80.33
2019-02-21T06:50:53.847Z,81.19
2019-02-21T06:53:24.388Z,81.03
2019-02-21T06:55:56.300Z,81.80
2019-02-21T06:58:31.068Z,81.42
2019-02-21T07:01:01.658Z,81.54
2019-02-21T07:03:33.986Z,81.44
2019-02-21T07:06:05.697Z,81.30
2019-02-21T07:08:36.437Z,83.52
2019-02-21T07:11:08.267Z,81.66
2019-02-21T07:13:39.285Z,81.99
2019-02-21T07:16:15.687Z,81.50
2019-02-21T07:18:57.240Z,82.05
2019-02-21T07:21:27.858Z,82.56
2019-02-21T07:24:01.538Z,82.40
2019-02-21T07:26:35.639Z,81.60
2019-02-21T07:29:07.910Z,82.83
2019-02-21T07:31:41.261Z,82.08
2019-02-21T07:34:11.838Z,81.70
2019-02-21T07:37:00.328Z,82.28
2019-02-21T07:39:36.177Z,81.67
2019-02-21T07:42:02.216Z,82.26
2019-02-21T07:45:18.498Z,84.12
2019-02-21T07:47:55.561Z,82.54
2019-02-21T07:50:52.760Z,82.18
2019-02-21T07:53:26.353Z,81.96
2019-02-21T07:56:42.260Z,82.03
2019-02-21T07:59:55.266Z,82.51
2019-02-21T08:07:03.242Z,82.44
2019-02-21T08:09:31.806Z,82.88
2019-02-21T08:12:46.409Z,82.76
2019-02-21T08:15:37.050Z,82.71
2019-02-21T08:18:41.265Z,82.90
2019-02-21T08:22:08.478Z,82.29
2019-02-21T08:25:03.748Z,84.17
2019-02-21T08:27:56.632Z,82.69
2019-02-21T08:30:37.486Z,82.84
2019-02-21T08:36:14.286Z,82.29
2019-02-21T08:38:45.098Z,83.16
2019-02-21T08:41:21.858Z,83.26
2019-02-21T08:43:58.231Z,83.27
2019-02-21T08:46:37.770Z,83.54
2019-02-21T08:49:20.448Z,82.58
2019-02-21T08:52:08.619Z,82.73
2019-02-21T08:55:00.179Z,82.92
2019-02-21T08:57:56.580Z,82.92
2019-02-21T09:00:33.302Z,82.37
2019-02-21T09:03:44.479Z,82.78
2019-02-21T09:06:20.149Z,83.25
2019-02-21T09:08:57.878Z,83.28
2019-02-21T09:11:49.009Z,82.72
2019-02-21T09:14:23.267Z,82.88
2019-02-21T09:16:54.110Z,82.72
2019-02-21T09:19:40.768Z,83.26
2019-02-21T09:22:11.491Z,82.46
2019-02-21T09:24:42.626Z,82.55
2019-02-21T09:27:22.220Z,83.01
2019-02-21T09:30:06.506Z,82.55
2019-02-21T09:32:33.337Z,82.26
2019-02-21T09:35:09.512Z,81.99
2019-02-21T09:37:49.325Z,81.96
2019-02-21T09:40:21.027Z,82.42
2019-02-21T09:42:59.137Z,81.51
2019-02-21T09:45:32.849Z,82.41
2019-02-21T09:48:03.905Z,81.52
2019-02-21T09:50:35.629Z,81.89
2019-02-21T09:53:09.178Z,80.58
2019-02-21T09:55:42.879Z,80.12
2019-02-21T09:58:20.558Z,80.69
2019-02-21T10:01:04.658Z,80.46
2019-02-21T10:03:36.188Z,81.76
2019-02-21T10:06:11.494Z,81.32
2019-02-21T10:08:52.079Z,80.41
2019-02-21T10:11:22.817Z,80.46
2019-02-21T10:13:56.137Z,80.44
2019-02-21T10:16:26.867Z,80.49
2019-02-21T10:18:57.529Z,80.97
2019-02-21T10:21:30.299Z,80.83
2019-02-21T10:24:03.699Z,80.91
2019-02-21T10:26:34.547Z,81.25
2019-02-21T10:29:05.647Z,82.14
2019-02-21T10:31:36.797Z,81.88
2019-02-21T10:34:07.807Z,82.09
2019-02-21T10:36:38.397Z,83.39
2019-02-21T10:39:09.111Z,81.07
2019-02-21T10:41:39.918Z,80.47
2019-02-21T10:44:19.814Z,80.65
2019-02-21T10:46:50.629Z,80.93
2019-02-21T10:49:23.737Z,80.44
2019-02-21T10:51:54.770Z,80.38
2019-02-21T10:54:25.577Z,78.38
2019-02-21T10:56:58.749Z,78.28
2019-02-21T10:59:29.347Z,78.54
2019-02-21T11:01:59.859Z,79.15
2019-02-21T11:04:30.513Z,78.50
2019-02-21T11:07:01.419Z,78.76
2019-02-21T11:09:32.086Z,79.19
2019-02-21T11:12:02.692Z,78.69
2019-02-21T11:14:33.352Z,78.67
2019-02-21T11:17:04.079Z,78.64
2019-02-21T11:19:34.979Z,78.40
2019-02-21T11:22:05.669Z,77.92
2019-02-21T11:24:36.302Z,77.79
2019-02-21T11:27:06.891Z,78.16
2019-02-21T11:29:37.409Z,77.85
2019-02-21T11:32:08.201Z,77.99
2019-02-21T11:34:39.157Z,78.01
2019-02-21T11:37:10.739Z,77.98
2019-02-21T11:39:41.349Z,77.55
2019-02-21T11:42:11.912Z,78.40
2019-02-21T11:44:45.827Z,78.17
2019-02-21T11:47:16.798Z,78.06
2019-02-21T11:49:47.615Z,77.91
2019-02-21T11:52:22.627Z,77.93
2019-02-21T11:54:53.467Z,77.72
2019-02-21T11:57:24.173Z,77.84
2019-02-21T11:59:57.389Z,77.51
2019-02-21T12:02:38.619Z,78.26
2019-02-21T12:05:02.418Z,78.13
2019-02-21T12:07:37.588Z,77.49
2019-02-21T12:10:10.639Z,77.71
2019-02-21T12:12:41.428Z,78.11
2019-02-21T12:15:13.600Z,77.87
2019-02-21T12:17:44.258Z,78.23
2019-02-21T12:20:15.987Z,78.80
2019-02-21T12:22:46.548Z,79.04
2019-02-21T12:25:18.387Z,79.03
2019-02-21T12:27:51.888Z,79.24
2019-02-21T12:30:22.577Z,78.42
2019-02-21T12:32:55.285Z,79.74
2019-02-21T12:35:30.272Z,79.03
2019-02-21T12:38:06.656Z,79.46
2019-02-21T12:40:40.427Z,79.55
2019-02-21T12:43:15.057Z,79.59
2019-02-21T12:45:45.897Z,79.67
2019-02-21T12:48:16.626Z,80.09
2019-02-21T12:50:48.974Z,79.97
2019-02-21T12:53:19.037Z,80.31
2019-02-21T12:55:49.550Z,81.70
2019-02-21T12:58:22.114Z,80.06
2019-02-21T13:00:52.779Z,80.10
2019-02-21T13:03:23.427Z,80.73
2019-02-21T13:05:53.977Z,80.12
2019-02-21T13:08:24.557Z,80.22
2019-02-21T13:10:55.088Z,81.40
2019-02-21T13:13:25.704Z,80.70
2019-02-21T13:15:56.327Z,81.12
2019-02-21T13:18:27.010Z,80.52
2019-02-21T13:20:57.549Z,81.72
2019-02-21T13:23:28.127Z,80.76
2019-02-21T13:25:59.829Z,81.50
2019-02-21T13:28:30.468Z,82.09
2019-02-21T13:31:01.250Z,82.51
2019-02-21T13:33:31.849Z,82.68
2019-02-21T13:36:02.460Z,82.59
2019-02-21T13:38:33.059Z,81.47
2019-02-21T13:41:03.638Z,82.29
2019-02-21T13:43:34.376Z,81.95
2019-02-21T13:46:04.988Z,82.30
2019-02-21T13:48:35.557Z,82.73
2019-02-21T13:51:06.073Z,83.36
2019-02-21T13:53:36.628Z,82.91
2019-02-21T13:56:07.194Z,83.05
2019-02-21T13:58:37.711Z,82.64
2019-02-21T14:01:08.289Z,83.13
2019-02-21T14:03:38.869Z,82.67
2019-02-21T14:06:09.392Z,83.12
2019-02-21T14:08:41.059Z,82.55
2019-02-21T14:11:13.979Z,81.89
2019-02-21T14:13:44.591Z,82.16
2019-02-21T14:16:15.137Z,81.94
2019-02-21T14:18:45.693Z,82.37
2019-02-21T14:21:16.261Z,81.87
2019-02-21T14:23:46.843Z,82.14
2019-02-21T14:26:17.372Z,82.54
2019-02-21T14:28:47.999Z,82.29
2019-02-21T14:31:18.589Z,82.53
2019-02-21T14:33:51.766Z,82.53
2019-02-21T14:36:20.516Z,82.84
2019-02-21T14:38:51.027Z,84.29
2019-02-21T14:41:21.657Z,83.81
2019-02-21T14:43:52.240Z,83.93
2019-02-21T14:46:23.329Z,83.33
2019-02-21T14:48:54.142Z,82.87
2019-02-21T14:51:24.725Z,82.52
2019-02-21T14:53:55.297Z,82.77
2019-02-21T14:56:25.906Z,82.35
2019-02-21T14:58:57.585Z,82.88
2019-02-21T15:01:29.078Z,82.37
2019-02-21T15:03:59.579Z,83.10
2019-02-21T15:06:30.090Z,82.20
2019-02-21T15:09:00.748Z,82.59
2019-02-21T15:11:32.867Z,82.67
2019-02-21T15:14:03.529Z,82.71
2019-02-21T15:16:34.089Z,82.48
2019-02-21T15:19:04.629Z,82.76
2019-02-21T15:21:35.193Z,82.24
2019-02-21T15:24:05.773Z,83.02
2019-02-21T15:26:36.289Z,83.14
2019-02-21T15:29:06.827Z,82.76
2019-02-21T15:31:37.427Z,83.22
2019-02-21T15:34:07.937Z,83.23
2019-02-21T15:36:38.738Z,83.15
2019-02-21T15:39:10.312Z,84.00
2019-02-21T15:41:40.858Z,83.71
2019-02-21T15:44:11.408Z,83.49
2019-02-21T15:46:41.947Z,82.75
2019-02-21T15:49:12.512Z,83.01
2019-02-21T15:51:43.009Z,83.14
2019-02-21T15:54:13.597Z,82.81
2019-02-21T15:56:44.167Z,82.46
2019-02-21T15:59:14.819Z,82.57
2019-02-21T16:01:47.774Z,82.92
2019-02-21T16:04:17.924Z,83.30
2019-02-21T16:06:52.027Z,83.53
2019-02-21T16:09:25.186Z,84.04
2019-02-21T16:11:54.420Z,83.83
2019-02-21T16:14:32.669Z,84.75
2019-02-21T16:17:03.260Z,83.78
2019-02-21T16:19:34.128Z,83.84
2019-02-21T16:22:06.889Z,84.19
2019-02-21T16:24:37.937Z,84.00
2019-02-21T16:27:08.809Z,84.67
2019-02-21T16:29:46.141Z,84.45
2019-02-21T16:32:18.596Z,84.53
2019-02-21T16:34:49.657Z,85.18
2019-02-21T16:37:20.828Z,84.82
2019-02-21T16:39:55.199Z,86.18
2019-02-21T16:42:25.888Z,85.46
2019-02-21T16:44:56.349Z,85.45
2019-02-21T16:47:26.991Z,85.81
2019-02-21T16:49:58.395Z,85.62
2019-02-21T16:52:28.990Z,85.28
2019-02-21T16:54:59.503Z,85.79
2019-02-21T16:57:30.137Z,86.12
2019-02-21T17:00:00.711Z,86.16
2019-02-21T17:02:31.768Z,86.30
2019-02-21T17:05:02.320Z,85.88
2019-02-21T17:07:32.909Z,86.05
2019-02-21T17:10:04.085Z,86.01
2019-02-21T17:12:37.057Z,85.89
2019-02-21T17:15:09.228Z,85.56
2019-02-21T17:17:40.298Z,85.69
2019-02-21T17:20:12.370Z,85.31
2019-02-21T17:22:42.989Z,84.76
2019-02-21T17:25:13.981Z,84.89
2019-02-21T17:27:44.630Z,85.25
2019-02-21T17:30:16.478Z,84.96
2019-02-21T17:32:47.407Z,84.85
2019-02-21T17:35:19.817Z,84.71
2019-02-21T17:37:49.447Z,84.23
2019-02-21T17:40:20.714Z,85.32
2019-02-21T17:42:51.320Z,85.00
2019-02-21T17:45:21.901Z,85.05
2019-02-21T17:47:52.809Z,85.11
2019-02-21T17:50:26.479Z,85.54
2019-02-21T17:52:57.379Z,84.73
2019-02-21T17:55:27.991Z,84.68
2019-02-21T17:57:58.857Z,84.60
2019-02-21T18:00:35.258Z,84.59
2019-02-21T18:03:06.389Z,84.68
2019-02-21T18:05:37.169Z,84.17
2019-02-21T18:08:07.788Z,84.08
2019-02-21T18:10:38.389Z,84.46
2019-02-21T18:13:08.949Z,84.74
2019-02-21T18:15:39.619Z,84.93
2019-02-21T18:18:10.229Z,84.57
2019-02-21T18:20:40.890Z,84.83
2019-02-21T18:23:12.519Z,84.30
2019-02-21T18:25:47.788Z,84.25
2019-02-21T18:28:18.389Z,84.31
2019-02-21T18:30:49.099Z,84.48
2019-02-21T18:33:19.821Z,84.64
2019-02-21T18:35:53.246Z,84.61
2019-02-21T18:38:25.220Z,84.89
2019-02-21T18:40:58.327Z,84.89
2019-02-21T18:43:30.908Z,85.18
2019-02-21T18:46:04.029Z,85.35
2019-02-21T18:48:34.833Z,85.36
2019-02-21T18:51:15.227Z,85.27
2019-02-21T18:53:47.320Z,85.63
2019-02-21T18:56:20.705Z,85.55
2019-02-21T18:58:53.168Z,85.48
2019-02-21T19:01:26.389Z,85.70
2019-02-21T19:03:56.937Z,85.70
2019-02-21T19:06:33.827Z,85.59
2019-02-21T19:09:08.758Z,85.89
2019-02-21T19:11:40.234Z,85.88
2019-02-21T19:14:10.869Z,85.94
2019-02-21T19:16:41.504Z,85.98
2019-02-21T19:19:12.039Z,85.71
2019-02-21T19:21:42.590Z,85.50
2019-02-21T19:24:13.188Z,85.86
2019-02-21T19:26:43.809Z,86.02
2019-02-21T19:29:14.378Z,86.03
2019-02-21T19:31:44.981Z,85.83
2019-02-21T19:34:16.465Z,86.12
2019-02-21T19:36:47.170Z,85.87
2019-02-21T19:39:17.762Z,86.34
2019-02-21T19:41:48.408Z,86.03
2019-02-21T19:44:18.877Z,85.94
2019-02-21T19:46:49.473Z,85.92
2019-02-21T19:49:19.978Z,86.26
2019-02-21T19:51:50.700Z,85.84
2019-02-21T19:54:21.499Z,85.95
2019-02-21T19:56:52.041Z,86.11
2019-02-21T19:59:22.669Z,86.17
2019-02-21T20:01:55.902Z,85.97
2019-02-21T20:04:27.149Z,85.99
2019-02-21T20:06:57.999Z,86.03
2019-02-21T20:09:29.580Z,86.08
2019-02-21T20:12:05.989Z,86.33
2019-02-21T20:14:39.467Z,86.35
2019-02-21T20:17:19.968Z,86.57
2019-02-21T20:20:23.826Z,86.51
2019-02-21T20:22:54.429Z,86.78
2019-02-21T20:25:24.982Z,86.80
2019-02-21T20:27:57.120Z,86.70
2019-02-21T20:30:27.748Z,86.54
2019-02-21T20:32:58.269Z,86.52
2019-02-21T20:35:28.850Z,86.77
2019-02-21T20:37:59.431Z,86.98
2019-02-21T20:40:29.929Z,86.87
2019-02-21T20:43:00.648Z,86.86
2019-02-21T20:45:31.295Z,86.82
2019-02-21T20:48:01.825Z,86.82
2019-02-21T20:50:32.411Z,87.07
2019-02-21T20:53:05.328Z,86.83
2019-02-21T20:55:43.425Z,87.15
2019-02-21T20:58:07.658Z,87.16
2019-02-21T21:00:38.213Z,87.69
2019-02-21T21:03:16.521Z,87.01
2019-02-21T21:05:50.077Z,87.01
2019-02-21T21:08:21.276Z,86.96
2019-02-21T21:10:51.966Z,86.94
2019-02-21T21:13:22.788Z,87.19
2019-02-21T21:15:53.719Z,87.04
2019-02-21T21:18:24.307Z,86.85
2019-02-21T21:20:54.837Z,86.92
2019-02-21T21:23:25.387Z,86.91
2019-02-21T21:25:55.929Z,86.85
2019-02-21T21:28:26.417Z,87.01
2019-02-21T21:31:00.137Z,86.91
2019-02-21T21:33:30.727Z,86.97
2019-02-21T21:36:02.856Z,87.15
2019-02-21T21:38:36.130Z,87.20
2019-02-21T21:41:06.757Z,87.22
2019-02-21T21:43:49.048Z,87.36
2019-02-21T21:46:19.587Z,87.21
2019-02-21T21:48:50.030Z,87.11
2019-02-21T21:51:20.839Z,86.99
2019-02-21T21:53:51.306Z,87.04
2019-02-21T21:56:21.835Z,86.90
2019-02-21T21:58:52.299Z,86.89
2019-02-21T22:01:22.809Z,86.98
2019-02-21T22:03:53.342Z,87.06
2019-02-21T22:06:23.847Z,87.04
2019-02-21T22:09:04.176Z,87.03
2019-02-21T22:11:37.696Z,86.98
2019-02-21T22:14:08.077Z,87.61
2019-02-21T22:16:42.351Z,87.21
2019-02-21T22:19:28.648Z,86.94
2019-02-21T22:21:59.188Z,86.93
2019-02-21T22:24:29.749Z,86.79
2019-02-21T22:27:38.929Z,86.79
2019-02-21T22:30:13.983Z,86.64
2019-02-21T22:36:37.072Z,86.40
2019-02-21T22:39:30.853Z,86.67
2019-02-21T22:42:01.457Z,86.74
2019-02-21T22:44:31.949Z,86.97
2019-02-21T22:47:02.428Z,86.98
2019-02-21T22:49:32.927Z,87.10
2019-02-21T22:52:03.463Z,87.15
2019-02-21T22:54:34.021Z,87.07
2019-02-21T22:57:04.537Z,86.92
2019-02-21T22:59:35.156Z,86.61
2019-02-21T23:02:05.750Z,86.48
2019-02-21T23:05:22.341Z,86.37
2019-02-21T23:07:58.489Z,86.21
2019-02-21T23:10:29.009Z,86.14
2019-02-21T23:12:59.650Z,86.25
2019-02-21T23:15:30.224Z,86.23
2019-02-21T23:18:00.767Z,85.64
2019-02-21T23:20:31.409Z,85.69
2019-02-21T23:23:05.147Z,85.56
2019-02-21T23:25:35.658Z,85.23
2019-02-21T23:28:06.187Z,84.17
2019-02-21T23:30:36.817Z,83.79
2019-02-21T23:33:07.353Z,84.15
2019-02-21T23:35:37.979Z,83.97
2019-02-21T23:38:08.938Z,84.78
2019-02-21T23:40:39.566Z,84.97
2019-02-21T23:43:10.242Z,84.88
2019-02-21T23:45:40.764Z,85.10
2019-02-21T23:48:11.327Z,85.03
2019-02-21T23:50:41.850Z,84.63
2019-02-21T23:53:12.517Z,84.10
2019-02-21T23:55:43.105Z,85.01
2019-02-21T23:58:13.599Z,84.97
